createdAt,value
2022-10-19T00:02:24.469Z,4.22
2022-10-19T00:04:51.369Z,3.63
2022-10-19T00:07:18.414Z,3.75
2022-10-19T00:09:45.250Z,3.75
2022-10-19T00:12:13.051Z,3.78
2022-10-19T00:14:39.873Z,3.78
2022-10-19T00:17:06.803Z,3.80
2022-10-19T00:19:34.102Z,3.53
2022-10-19T00:22:00.868Z,4.57
2022-10-19T00:24:27.642Z,3.60
2022-10-19T00:26:54.414Z,4.07
2022-10-19T00:29:21.174Z,3.80
2022-10-19T00:31:50.072Z,4.35
2022-10-19T00:34:17.337Z,4.30
2022-10-19T00:36:44.465Z,3.72
2022-10-19T00:39:15.662Z,3.80
2022-10-19T00:41:43.337Z,4.25
2022-10-19T00:44:13.198Z,4.18
2022-10-19T00:46:45.813Z,3.67
2022-10-19T00:49:19.377Z,4.15
2022-10-19T00:51:50.478Z,4.55
2022-10-19T00:54:21.007Z,4.43
2022-10-19T00:56:51.829Z,4.70
2022-10-19T00:59:20.748Z,5.03
2022-10-19T01:01:48.981Z,5.30
2022-10-19T01:04:15.837Z,4.45
2022-10-19T01:06:43.192Z,5.20
2022-10-19T01:09:09.999Z,5.65
2022-10-19T01:11:46.004Z,6.15
2022-10-19T01:14:26.145Z,5.85
2022-10-19T01:16:55.668Z,5.47
2022-10-19T01:19:28.398Z,6.18
2022-10-19T01:22:27.331Z,5.93
2022-10-19T01:24:57.898Z,5.88
2022-10-19T01:27:54.283Z,6.40
2022-10-19T01:30:44.340Z,4.85
2022-10-19T01:33:25.556Z,6.20
2022-10-19T01:36:11.271Z,6.05
2022-10-19T01:38:48.107Z,6.05
2022-10-19T01:41:50.259Z,4.72
2022-10-19T01:44:25.536Z,5.55
2022-10-19T01:47:00.565Z,5.50
2022-10-19T01:49:40.823Z,5.20
2022-10-19T01:52:10.094Z,5.07
2022-10-19T01:54:42.706Z,4.95
2022-10-19T01:57:12.353Z,4.93
2022-10-19T01:59:40.081Z,4.30
2022-10-19T02:02:10.601Z,4.57
2022-10-19T02:04:39.203Z,4.50
2022-10-19T02:07:08.264Z,5.97
2022-10-19T02:09:35.597Z,5.35
2022-10-19T02:12:06.442Z,5.28
2022-10-19T02:14:39.663Z,5.20
2022-10-19T02:17:10.034Z,6.00
2022-10-19T02:19:37.326Z,5.80
2022-10-19T02:22:04.297Z,6.55
2022-10-19T02:24:31.124Z,6.45
2022-10-19T02:26:58.607Z,5.72
2022-10-19T02:29:28.616Z,6.10
2022-10-19T02:31:55.602Z,5.25
2022-10-19T02:34:22.642Z,5.50
2022-10-19T02:36:49.595Z,5.47
2022-10-19T02:39:16.552Z,5.32
2022-10-19T02:41:54.217Z,4.88
2022-10-19T02:44:29.751Z,5.30
2022-10-19T02:47:17.838Z,4.65
2022-10-19T02:49:45.502Z,4.80
2022-10-19T02:52:14.037Z,5.30
2022-10-19T02:54:43.709Z,4.35
2022-10-19T02:57:17.387Z,4.78
2022-10-19T02:59:44.357Z,4.70
2022-10-19T03:02:11.165Z,4.97
2022-10-19T03:04:38.040Z,4.35
2022-10-19T03:07:04.888Z,4.70
2022-10-19T03:09:31.611Z,4.95
2022-10-19T03:11:58.406Z,4.65
2022-10-19T03:14:25.138Z,4.40
2022-10-19T03:16:51.902Z,4.97
2022-10-19T03:19:18.829Z,5.43
2022-10-19T03:21:45.524Z,4.57
2022-10-19T03:24:12.657Z,5.00
2022-10-19T03:26:39.539Z,5.22
2022-10-19T03:29:06.232Z,5.22
2022-10-19T03:31:32.972Z,4.55
2022-10-19T03:33:59.787Z,4.50
2022-10-19T03:36:29.605Z,4.35
2022-10-19T03:39:01.555Z,4.82
2022-10-19T03:41:30.394Z,5.15
2022-10-19T03:43:57.999Z,4.57
2022-10-19T03:46:25.242Z,4.95
2022-10-19T03:48:52.084Z,5.22
2022-10-19T03:51:21.510Z,5.15
2022-10-19T03:53:51.777Z,4.82
2022-10-19T03:56:20.410Z,4.85
2022-10-19T03:58:49.103Z,4.97
2022-10-19T04:01:18.854Z,5.55
2022-10-19T04:03:45.807Z,5.40
2022-10-19T04:06:21.167Z,5.07
2022-10-19T04:08:58.797Z,5.65
2022-10-19T04:11:28.794Z,5.20
2022-10-19T04:13:57.154Z,5.38
2022-10-19T04:16:28.810Z,5.28
2022-10-19T04:18:55.966Z,5.35
2022-10-19T04:21:28.619Z,5.22
2022-10-19T04:24:08.916Z,5.15
2022-10-19T04:26:43.145Z,5.10
2022-10-19T04:29:10.968Z,5.33
2022-10-19T04:31:38.200Z,5.63
2022-10-19T04:34:05.443Z,5.93
2022-10-19T04:36:33.027Z,5.57
2022-10-19T04:38:59.811Z,6.03
2022-10-19T04:41:26.547Z,5.60
2022-10-19T04:43:59.113Z,4.82
2022-10-19T04:46:27.359Z,5.38
2022-10-19T04:48:55.592Z,4.93
2022-10-19T04:51:23.098Z,5.93
2022-10-19T04:53:50.474Z,5.18
2022-10-19T04:56:21.132Z,5.60
2022-10-19T04:58:48.491Z,5.68
2022-10-19T05:01:20.561Z,5.72
2022-10-19T05:03:48.420Z,5.38
2022-10-19T05:06:15.943Z,5.47
2022-10-19T05:08:42.731Z,5.80
2022-10-19T05:11:14.557Z,5.50
2022-10-19T05:13:42.409Z,5.95
2022-10-19T05:16:12.437Z,5.10
2022-10-19T05:18:39.900Z,5.75
2022-10-19T05:21:08.172Z,5.78
2022-10-19T05:23:35.620Z,5.00
2022-10-19T05:26:19.862Z,3.97
2022-10-19T05:28:56.251Z,5.32
2022-10-19T05:31:25.107Z,4.93
2022-10-19T05:33:51.939Z,5.13
2022-10-19T05:36:21.675Z,3.58
2022-10-19T05:38:50.293Z,3.60
2022-10-19T05:41:17.547Z,3.85
2022-10-19T05:43:45.113Z,3.28
2022-10-19T05:46:14.681Z,3.78
2022-10-19T05:48:41.633Z,3.58
2022-10-19T05:51:11.363Z,3.08
2022-10-19T05:56:14.696Z,2.97
2022-10-19T05:58:41.477Z,3.00
2022-10-19T06:01:09.440Z,4.00
2022-10-19T06:03:36.713Z,3.78
2022-10-19T06:06:05.647Z,3.85
2022-10-19T06:08:32.964Z,4.20
2022-10-19T06:11:13.601Z,4.82
2022-10-19T06:13:41.516Z,4.15
2022-10-19T06:16:10.466Z,3.55
2022-10-19T06:18:38.465Z,3.65
2022-10-19T06:21:08.225Z,4.72
2022-10-19T06:23:37.517Z,4.63
2022-10-19T06:26:07.625Z,3.78
2022-10-19T06:28:35.481Z,3.72
2022-10-19T06:31:05.938Z,4.35
2022-10-19T06:33:35.515Z,3.63
2022-10-19T06:36:07.597Z,3.50
2022-10-19T06:38:34.971Z,3.80
2022-10-19T06:41:01.957Z,3.90
2022-10-19T06:43:28.756Z,4.13
2022-10-19T06:45:55.577Z,4.55
2022-10-19T06:48:22.486Z,3.83
2022-10-19T06:51:06.226Z,4.45
2022-10-19T06:53:36.997Z,4.35
2022-10-19T06:56:06.217Z,3.63
2022-10-19T06:58:37.403Z,4.20
2022-10-19T07:01:07.576Z,4.35
2022-10-19T07:03:35.525Z,4.78
2022-10-19T07:06:05.511Z,3.92
2022-10-19T07:08:33.466Z,3.70
2022-10-19T07:11:02.922Z,4.28
2022-10-19T07:13:30.912Z,3.95
2022-10-19T07:16:05.523Z,4.57
2022-10-19T07:18:33.691Z,5.10
2022-10-19T07:21:03.200Z,4.85
2022-10-19T07:23:32.594Z,3.90
2022-10-19T07:26:04.113Z,3.60
2022-10-19T07:28:31.170Z,3.67
2022-10-19T07:30:58.004Z,3.30
2022-10-19T07:33:24.997Z,3.55
2022-10-19T07:35:59.408Z,3.58
2022-10-19T07:38:26.166Z,3.97
2022-10-19T07:41:00.721Z,3.53
2022-10-19T07:43:27.523Z,3.92
2022-10-19T07:45:58.945Z,3.50
2022-10-19T07:48:25.725Z,3.63
2022-10-19T07:50:52.454Z,3.50
2022-10-19T07:53:19.256Z,3.00
2022-10-19T07:55:46.073Z,4.15
2022-10-19T07:58:13.022Z,3.25
2022-10-19T08:05:53.541Z,3.38
2022-10-19T08:08:20.590Z,3.05
2022-10-19T08:10:47.462Z,3.47
2022-10-19T08:13:14.587Z,3.55
2022-10-19T08:15:41.396Z,3.75
2022-10-19T08:18:08.583Z,3.33
2022-10-19T08:20:35.350Z,3.30
2022-10-19T08:23:02.197Z,2.72
2022-10-19T08:25:29.016Z,2.78
2022-10-19T08:27:55.867Z,3.38
2022-10-19T08:30:22.654Z,3.55
2022-10-19T08:32:49.476Z,2.70
2022-10-19T08:35:16.367Z,2.55
2022-10-19T08:37:45.489Z,2.88
2022-10-19T08:40:23.825Z,2.67
2022-10-19T08:43:13.705Z,2.95
2022-10-19T08:45:48.994Z,2.97
2022-10-19T08:48:22.916Z,2.30
2022-10-19T08:50:50.186Z,2.00
2022-10-19T08:53:33.705Z,1.95
2022-10-19T08:56:04.395Z,2.10
2022-10-19T08:58:43.714Z,2.28
2022-10-19T09:01:24.961Z,1.42
2022-10-19T09:04:37.500Z,1.83
2022-10-19T09:07:13.411Z,1.77
2022-10-19T09:12:16.861Z,1.50
2022-10-19T09:14:55.600Z,1.80
2022-10-19T09:17:22.585Z,1.17
2022-10-19T09:19:49.401Z,1.75
2022-10-19T09:22:37.644Z,1.50
2022-10-19T09:25:19.384Z,1.60
2022-10-19T09:27:48.845Z,1.38
2022-10-19T09:30:18.009Z,1.73
2022-10-19T09:32:45.477Z,1.30
2022-10-19T09:35:38.897Z,1.70
2022-10-19T09:38:07.377Z,1.55
2022-10-19T09:40:35.653Z,1.48
2022-10-19T09:43:19.616Z,1.80
2022-10-19T09:45:57.008Z,1.75
2022-10-19T09:48:44.634Z,1.70
2022-10-19T09:51:14.629Z,1.55
2022-10-19T09:53:55.762Z,1.38
2022-10-19T09:56:27.672Z,1.05
2022-10-19T09:58:57.354Z,1.27
2022-10-19T10:01:40.216Z,1.15
2022-10-19T10:06:40.863Z,1.35
2022-10-19T10:09:07.718Z,1.50
2022-10-19T10:11:38.085Z,1.38
2022-10-19T10:14:35.407Z,1.45
2022-10-19T10:17:06.462Z,1.30
2022-10-19T10:19:36.063Z,1.70
2022-10-19T10:22:04.305Z,1.52
2022-10-19T10:24:33.183Z,1.40
2022-10-19T10:27:05.709Z,1.50
2022-10-19T10:29:35.342Z,1.30
2022-10-19T10:32:19.921Z,1.30
2022-10-19T10:35:14.839Z,1.38
2022-10-19T10:37:47.181Z,1.95
2022-10-19T10:40:24.769Z,1.38
2022-10-19T10:42:53.997Z,1.25
2022-10-19T10:45:31.017Z,1.52
2022-10-19T10:47:59.637Z,1.70
2022-10-19T10:50:34.382Z,1.50
2022-10-19T10:53:07.220Z,1.95
2022-10-19T10:55:34.498Z,1.83
2022-10-19T10:58:13.096Z,2.08
2022-10-19T11:00:40.930Z,1.63
2022-10-19T11:03:23.963Z,1.40
2022-10-19T11:05:58.145Z,1.40
2022-10-19T11:08:49.136Z,1.80
2022-10-19T11:11:27.848Z,2.10
2022-10-19T11:14:30.660Z,2.10
2022-10-19T11:17:03.430Z,1.90
2022-10-19T11:19:35.931Z,2.22
2022-10-19T11:22:15.405Z,2.30
2022-10-19T11:25:00.299Z,2.72
2022-10-19T11:27:41.412Z,2.67
2022-10-19T11:30:16.202Z,1.60
2022-10-19T11:32:54.888Z,1.40
2022-10-19T11:36:01.895Z,1.73
2022-10-19T11:38:50.083Z,1.35
2022-10-19T11:41:39.399Z,1.63
2022-10-19T11:44:27.117Z,2.33
2022-10-19T11:46:56.625Z,1.50
2022-10-19T11:49:33.182Z,1.70
2022-10-19T11:52:15.000Z,1.85
2022-10-19T11:55:03.557Z,1.60
2022-10-19T11:57:53.863Z,1.85
2022-10-19T12:00:38.001Z,1.83
2022-10-19T12:03:41.669Z,1.48
2022-10-19T12:06:48.793Z,2.42
2022-10-19T12:09:24.939Z,1.70
2022-10-19T12:12:15.632Z,1.38
2022-10-19T12:14:46.626Z,1.98
2022-10-19T12:17:20.821Z,1.80
2022-10-19T12:19:52.112Z,1.63
2022-10-19T12:22:23.676Z,2.22
2022-10-19T12:24:50.953Z,2.58
2022-10-19T12:27:24.889Z,2.38
2022-10-19T12:29:52.648Z,3.15
2022-10-19T12:32:23.708Z,2.50
2022-10-19T12:35:03.226Z,2.92
2022-10-19T12:37:47.428Z,3.28
2022-10-19T12:40:46.284Z,3.50
2022-10-19T12:43:46.098Z,4.00
2022-10-19T12:46:51.743Z,3.88
2022-10-19T12:49:26.624Z,3.72
2022-10-19T12:51:55.495Z,3.97
2022-10-19T12:54:28.281Z,3.38
2022-10-19T12:56:57.645Z,3.10
2022-10-19T12:59:33.255Z,3.05
2022-10-19T13:02:01.889Z,2.55
2022-10-19T13:04:34.824Z,2.60
2022-10-19T13:07:09.248Z,2.53
2022-10-19T13:09:42.123Z,2.67
2022-10-19T13:12:17.947Z,2.70
2022-10-19T13:14:59.416Z,2.60
2022-10-19T13:17:36.906Z,2.83
2022-10-19T13:20:15.834Z,2.20
2022-10-19T13:22:42.648Z,2.15
2022-10-19T13:25:37.926Z,2.00
2022-10-19T13:28:07.640Z,2.17
2022-10-19T13:30:43.433Z,1.70
2022-10-19T13:33:44.849Z,2.55
2022-10-19T13:36:12.602Z,2.15
2022-10-19T13:39:06.107Z,1.60
2022-10-19T13:41:39.200Z,1.60
2022-10-19T13:44:22.895Z,1.27
2022-10-19T13:46:55.588Z,1.70
2022-10-19T13:50:04.497Z,1.75
2022-10-19T13:52:46.977Z,1.77
2022-10-19T13:55:47.175Z,1.70
2022-10-19T13:58:35.601Z,1.50
2022-10-19T14:01:05.350Z,1.40
2022-10-19T14:03:50.913Z,1.23
2022-10-19T14:09:22.657Z,1.48
2022-10-19T14:11:52.788Z,1.75
2022-10-19T14:14:21.741Z,1.70
2022-10-19T14:16:55.212Z,6.78
2022-10-19T14:19:43.636Z,3.17
2022-10-19T14:22:40.767Z,2.55
2022-10-19T14:25:17.861Z,1.77
2022-10-19T14:27:46.393Z,2.38
2022-10-19T14:30:43.187Z,2.30
2022-10-19T14:33:11.640Z,1.80
2022-10-19T14:35:41.156Z,2.30
2022-10-19T14:38:15.962Z,2.15
2022-10-19T14:40:42.854Z,1.92
2022-10-19T14:43:30.222Z,2.08
2022-10-19T14:46:09.467Z,2.03
2022-10-19T14:48:47.203Z,2.55
2022-10-19T14:51:41.342Z,1.77
2022-10-19T14:54:32.294Z,2.13
2022-10-19T14:57:06.608Z,1.48
2022-10-19T14:59:39.381Z,2.03
2022-10-19T15:02:16.051Z,2.00
2022-10-19T15:04:42.904Z,1.98
2022-10-19T15:07:41.260Z,1.60
2022-10-19T15:10:34.915Z,2.47
2022-10-19T15:13:06.530Z,1.63
2022-10-19T15:15:35.734Z,1.60
2022-10-19T15:18:04.988Z,1.77
2022-10-19T15:20:55.009Z,2.45
2022-10-19T15:23:42.984Z,1.63
2022-10-19T15:26:24.818Z,1.67
2022-10-19T15:28:52.600Z,1.50
2022-10-19T15:31:24.176Z,1.73
2022-10-19T15:33:55.982Z,2.17
2022-10-19T15:36:23.780Z,1.50
2022-10-19T15:39:11.465Z,1.95
2022-10-19T15:41:47.232Z,1.65
2022-10-19T15:44:40.635Z,2.17
2022-10-19T15:47:17.059Z,3.13
2022-10-19T15:49:44.406Z,3.45
2022-10-19T15:52:25.910Z,2.58
2022-10-19T15:54:58.316Z,2.47
2022-10-19T15:57:28.071Z,2.80
2022-10-19T15:59:57.299Z,3.70
2022-10-19T16:02:29.393Z,3.33
2022-10-19T16:04:56.462Z,2.42
2022-10-19T16:07:29.230Z,3.17
2022-10-19T16:09:56.671Z,3.15
2022-10-19T16:12:25.378Z,2.70
2022-10-19T16:14:53.250Z,2.15
2022-10-19T16:17:20.443Z,2.72
2022-10-19T16:19:47.656Z,2.72
2022-10-19T16:22:15.133Z,2.45
2022-10-19T16:24:42.605Z,2.80
2022-10-19T16:27:09.896Z,2.65
2022-10-19T16:29:36.890Z,3.17
2022-10-19T16:32:03.714Z,2.60
2022-10-19T16:34:30.703Z,2.63
2022-10-19T16:37:00.357Z,3.55
2022-10-19T16:39:28.727Z,2.40
2022-10-19T16:41:55.656Z,3.05
2022-10-19T16:44:22.551Z,2.55
2022-10-19T16:46:49.462Z,2.90
2022-10-19T16:49:16.565Z,3.75
2022-10-19T16:51:43.430Z,3.15
2022-10-19T16:54:11.714Z,2.80
2022-10-19T16:56:45.376Z,3.20
2022-10-19T16:59:15.384Z,4.80
2022-10-19T17:01:44.472Z,3.75
2022-10-19T17:04:16.018Z,3.85
2022-10-19T17:06:42.917Z,3.72
2022-10-19T17:11:56.989Z,4.38
2022-10-19T17:14:23.892Z,3.20
2022-10-19T17:16:50.888Z,4.03
2022-10-19T17:19:20.293Z,4.15
2022-10-19T17:21:49.376Z,4.20
2022-10-19T17:24:21.672Z,4.38
2022-10-19T17:26:51.392Z,4.35
2022-10-19T17:29:19.233Z,4.72
2022-10-19T17:31:46.657Z,4.65
2022-10-19T17:34:13.656Z,4.70
2022-10-19T17:36:44.698Z,4.20
2022-10-19T17:39:17.521Z,4.93
2022-10-19T17:41:48.614Z,5.30
2022-10-19T17:44:16.520Z,5.38
2022-10-19T17:46:43.561Z,4.70
2022-10-19T17:49:10.618Z,5.93
2022-10-19T17:51:37.938Z,6.00
2022-10-19T17:54:14.937Z,6.10
2022-10-19T17:56:45.346Z,5.97
2022-10-19T17:59:13.496Z,6.68
2022-10-19T18:01:41.058Z,5.75
2022-10-19T18:04:08.033Z,6.15
2022-10-19T18:06:36.776Z,5.35
2022-10-19T18:09:06.757Z,5.57
2022-10-19T18:11:40.827Z,5.82
2022-10-19T18:14:09.190Z,6.15
2022-10-19T18:16:40.043Z,6.07
2022-10-19T18:19:07.934Z,6.13
2022-10-19T18:21:38.790Z,6.70
2022-10-19T18:24:08.217Z,7.18
2022-10-19T18:26:37.048Z,7.90
2022-10-19T18:29:11.714Z,7.35
2022-10-19T18:31:40.070Z,8.45
2022-10-19T18:34:11.083Z,7.53
2022-10-19T18:36:38.217Z,8.27
2022-10-19T18:39:06.335Z,6.78
2022-10-19T18:41:33.717Z,7.07
2022-10-19T18:44:03.653Z,6.70
2022-10-19T18:46:31.618Z,6.32
2022-10-19T18:49:00.526Z,5.20
2022-10-19T18:51:28.182Z,5.70
2022-10-19T18:53:55.681Z,5.72
2022-10-19T18:56:23.559Z,5.47
2022-10-19T18:58:51.104Z,5.13
2022-10-19T19:01:17.969Z,4.70
2022-10-19T19:03:47.574Z,4.35
2022-10-19T19:06:22.357Z,4.55
2022-10-19T19:08:49.553Z,4.57
2022-10-19T19:11:43.275Z,4.75
2022-10-19T19:14:21.152Z,5.78
2022-10-19T19:16:48.171Z,4.65
2022-10-19T19:19:17.749Z,4.82
2022-10-19T19:21:45.315Z,4.47
2022-10-19T19:24:17.942Z,4.53
2022-10-19T19:26:49.353Z,5.00
2022-10-19T19:29:17.101Z,4.40
2022-10-19T19:31:44.054Z,4.35
2022-10-19T19:34:10.987Z,4.50
2022-10-19T19:36:46.801Z,4.50
2022-10-19T19:39:19.559Z,4.60
2022-10-19T19:41:47.187Z,4.20
2022-10-19T19:44:14.015Z,4.38
2022-10-19T19:46:40.847Z,3.67
2022-10-19T19:49:07.652Z,4.63
2022-10-19T19:51:35.181Z,4.30
2022-10-19T19:54:01.989Z,4.72
2022-10-19T19:56:29.157Z,4.20
2022-10-19T19:58:57.589Z,3.97
2022-10-19T20:01:25.797Z,3.88
2022-10-19T20:03:52.750Z,4.03
2022-10-19T20:06:23.547Z,3.55
2022-10-19T20:08:53.460Z,3.97
2022-10-19T20:11:20.418Z,3.65
2022-10-19T20:13:47.463Z,3.40
2022-10-19T20:16:17.578Z,3.53
2022-10-19T20:18:46.341Z,3.30
2022-10-19T20:21:13.610Z,3.42
2022-10-19T20:23:40.470Z,3.80
2022-10-19T20:26:14.026Z,3.50
2022-10-19T20:28:40.934Z,3.40
2022-10-19T20:31:09.839Z,3.83
2022-10-19T20:33:59.969Z,3.42
2022-10-19T20:36:27.188Z,3.47
2022-10-19T20:38:58.444Z,3.72
2022-10-19T20:41:27.230Z,3.40
2022-10-19T20:43:55.427Z,3.35
2022-10-19T20:46:26.464Z,3.42
2022-10-19T20:48:54.831Z,3.88
2022-10-19T20:51:30.915Z,3.75
2022-10-19T20:54:01.086Z,3.72
2022-10-19T20:56:30.883Z,3.17
2022-10-19T20:59:10.858Z,3.92
2022-10-19T21:01:39.919Z,3.47
2022-10-19T21:04:09.171Z,3.03
2022-10-19T21:06:39.977Z,4.03
2022-10-19T21:09:07.883Z,3.42
2022-10-19T21:11:37.434Z,3.33
2022-10-19T21:14:11.532Z,3.20
2022-10-19T21:16:39.184Z,2.75
2022-10-19T21:19:14.297Z,3.60
2022-10-19T21:24:15.757Z,3.45
2022-10-19T21:26:43.204Z,3.15
2022-10-19T21:29:11.119Z,3.50
2022-10-19T21:31:42.996Z,3.78
2022-10-19T21:34:14.647Z,3.30
2022-10-19T21:36:43.038Z,3.75
2022-10-19T21:39:10.159Z,3.53
2022-10-19T21:41:37.518Z,3.25
2022-10-19T21:44:04.576Z,4.60
2022-10-19T21:46:31.369Z,3.38
2022-10-19T21:48:58.600Z,3.50
2022-10-19T21:51:42.761Z,3.80
2022-10-19T21:54:13.005Z,4.25
2022-10-19T21:56:39.837Z,3.97
2022-10-19T21:59:06.615Z,4.05
2022-10-19T22:01:38.530Z,4.35
2022-10-19T22:04:12.161Z,3.20
2022-10-19T22:06:39.440Z,4.22
2022-10-19T22:09:32.767Z,4.45
2022-10-19T22:12:00.266Z,4.05
2022-10-19T22:14:28.987Z,4.70
2022-10-19T22:16:58.629Z,4.10
2022-10-19T22:19:28.356Z,4.57
2022-10-19T22:21:55.404Z,5.22
2022-10-19T22:24:22.134Z,5.60
2022-10-19T22:26:50.775Z,4.90
2022-10-19T22:29:18.154Z,4.68
2022-10-19T22:31:45.385Z,5.78
2022-10-19T22:34:15.893Z,5.35
2022-10-19T22:36:43.125Z,4.88
2022-10-19T22:39:10.306Z,6.55
2022-10-19T22:41:37.042Z,5.45
2022-10-19T22:44:03.826Z,5.68
2022-10-19T22:46:30.725Z,5.38
2022-10-19T22:48:57.614Z,6.38
2022-10-19T22:51:24.613Z,5.85
2022-10-19T22:53:51.679Z,6.20
2022-10-19T22:56:19.729Z,5.80
2022-10-19T22:58:46.495Z,6.05
2022-10-19T23:01:15.187Z,6.10
2022-10-19T23:03:43.022Z,6.03
2022-10-19T23:06:12.806Z,6.10
2022-10-19T23:08:40.088Z,6.10
2022-10-19T23:11:06.893Z,6.72
2022-10-19T23:13:33.755Z,7.03
2022-10-19T23:16:00.540Z,6.95
2022-10-19T23:18:29.895Z,6.88
2022-10-19T23:20:58.805Z,7.20
2022-10-19T23:23:26.143Z,7.13
2022-10-19T23:26:01.578Z,6.85
2022-10-19T23:28:29.435Z,7.35
2022-10-19T23:31:04.349Z,6.60
2022-10-19T23:33:31.663Z,7.30
2022-10-19T23:36:06.208Z,7.55
2022-10-19T23:38:33.221Z,7.50
2022-10-19T23:40:59.995Z,7.35
2022-10-19T23:43:26.813Z,7.93
2022-10-19T23:45:53.827Z,9.38
2022-10-19T23:48:20.821Z,8.38
2022-10-19T23:50:55.669Z,10.20
2022-10-19T23:53:22.381Z,11.60
2022-10-19T23:55:49.205Z,10.90
2022-10-19T23:58:16.029Z,12.43
